createdAt,value
2022-08-07T00:03:47.312Z,17.10
2022-08-07T00:09:16.406Z,17.10
2022-08-07T00:14:45.233Z,17.20
2022-08-07T00:26:06.877Z,17.10
2022-08-07T00:31:46.707Z,17.20
2022-08-07T00:42:50.803Z,17.10
2022-08-07T00:48:30.956Z,17.00
2022-08-07T00:59:35.338Z,17.00
2022-08-07T01:05:19.388Z,16.90
2022-08-07T01:27:36.993Z,16.80
2022-08-07T01:33:09.201Z,16.80
2022-08-07T01:38:38.685Z,16.70
2022-08-07T01:44:16.645Z,16.70
2022-08-07T01:55:22.226Z,16.70
2022-08-07T02:01:10.373Z,16.70
2022-08-07T02:06:47.701Z,16.70
2022-08-07T02:12:19.378Z,16.70
2022-08-07T02:18:00.273Z,16.60
2022-08-07T02:23:30.648Z,16.60
2022-08-07T02:29:07.773Z,16.60
2022-08-07T02:34:48.957Z,16.60
2022-08-07T02:40:30.845Z,16.60
2022-08-07T02:46:05.878Z,16.50
2022-08-07T02:51:42.907Z,16.50
2022-08-07T02:57:23.782Z,16.50
2022-08-07T03:03:00.345Z,16.40
2022-08-07T03:14:06.010Z,16.40
2022-08-07T03:19:36.859Z,16.30
2022-08-07T03:25:07.566Z,16.30
2022-08-07T03:30:46.556Z,16.20
2022-08-07T03:36:16.796Z,16.20
2022-08-07T03:47:25.428Z,16.10
2022-08-07T03:53:00.249Z,16.20
2022-08-07T03:59:06.750Z,16.00
2022-08-07T04:04:19.510Z,16.00
2022-08-07T04:09:59.195Z,16.00
2022-08-07T04:26:30.012Z,16.00
2022-08-07T04:32:03.042Z,16.00
2022-08-07T04:44:11.994Z,15.90
2022-08-07T04:49:57.751Z,16.00
2022-08-07T04:58:16.217Z,16.00
2022-08-07T05:02:22.960Z,16.00
2022-08-07T05:08:01.227Z,16.00
2022-08-07T05:14:53.338Z,16.10
2022-08-07T05:19:44.767Z,16.20
2022-08-07T05:25:25.602Z,16.30
2022-08-07T05:31:07.628Z,16.30
2022-08-07T05:36:42.660Z,16.40
2022-08-07T05:42:33.856Z,16.30
2022-08-07T05:48:08.371Z,16.60
2022-08-07T05:54:09.508Z,16.70
2022-08-07T05:59:47.278Z,16.70
2022-08-07T06:05:28.459Z,16.60
2022-08-07T06:16:35.466Z,16.80
2022-08-07T06:22:14.425Z,16.90
2022-08-07T06:28:01.418Z,17.00
2022-08-07T06:33:33.140Z,17.20
2022-08-07T06:40:13.120Z,17.40
2022-08-07T06:44:53.537Z,17.50
2022-08-07T06:50:23.091Z,17.80
2022-08-07T07:01:43.829Z,17.90
2022-08-07T07:13:55.959Z,18.40
2022-08-07T07:19:56.131Z,18.50
2022-08-07T07:26:30.659Z,18.80
2022-08-07T07:31:13.067Z,19.00
2022-08-07T07:36:47.812Z,19.10
2022-08-07T07:42:32.829Z,19.10
2022-08-07T07:48:04.249Z,19.30
2022-08-07T07:53:34.839Z,19.60
2022-08-07T07:59:05.917Z,19.50
2022-08-07T08:04:36.472Z,19.40
2022-08-07T08:10:08.035Z,19.70
2022-08-07T08:15:57.877Z,20.00
2022-08-07T08:21:55.660Z,20.40
2022-08-07T08:27:37.616Z,20.70
2022-08-07T08:33:10.361Z,20.80
2022-08-07T08:38:46.387Z,20.90
2022-08-07T08:44:33.883Z,21.00
2022-08-07T08:50:34.850Z,20.90
2022-08-07T08:56:33.653Z,20.90
2022-08-07T09:02:37.510Z,20.90
2022-08-07T09:08:24.318Z,21.00
2022-08-07T09:14:19.804Z,21.50
2022-08-07T09:20:24.957Z,21.50
2022-08-07T09:26:29.266Z,21.70
2022-08-07T09:32:31.060Z,21.70
2022-08-07T09:38:10.554Z,21.90
2022-08-07T09:44:05.693Z,21.90
2022-08-07T09:50:04.166Z,21.90
2022-08-07T09:56:34.107Z,21.90
2022-08-07T10:02:20.320Z,22.10
2022-08-07T10:08:40.378Z,22.20
2022-08-07T10:15:18.359Z,22.40
2022-08-07T10:22:14.175Z,22.50
2022-08-07T10:27:51.458Z,22.60
2022-08-07T10:34:06.717Z,22.90
2022-08-07T10:40:14.060Z,23.20
2022-08-07T10:45:58.784Z,23.30
2022-08-07T10:51:57.169Z,23.60
2022-08-07T10:57:56.066Z,23.60
2022-08-07T11:03:37.142Z,23.20
2022-08-07T11:10:09.071Z,23.20
2022-08-07T11:15:17.203Z,23.20
2022-08-07T11:21:23.162Z,23.00
2022-08-07T11:27:16.611Z,23.20
2022-08-07T11:33:14.005Z,23.30
2022-08-07T11:39:14.664Z,23.10
2022-08-07T11:45:13.654Z,23.10
2022-08-07T11:51:41.923Z,23.00
2022-08-07T11:57:59.704Z,22.90
2022-08-07T12:03:58.117Z,23.30
2022-08-07T12:09:55.455Z,23.60
2022-08-07T12:15:46.430Z,23.60
2022-08-07T12:22:36.074Z,23.50
2022-08-07T12:28:09.116Z,23.40
2022-08-07T12:33:56.154Z,23.90
2022-08-07T12:39:42.585Z,24.00
2022-08-07T12:45:16.206Z,24.50
2022-08-07T12:51:17.226Z,24.50
2022-08-07T12:56:51.362Z,24.80
2022-08-07T13:03:07.080Z,24.50
2022-08-07T13:08:56.098Z,24.50
2022-08-07T13:14:51.291Z,24.50
2022-08-07T13:20:39.876Z,24.50
2022-08-07T13:26:20.036Z,24.50
2022-08-07T13:32:37.359Z,24.90
2022-08-07T13:38:31.689Z,25.10
2022-08-07T13:44:05.162Z,25.00
2022-08-07T13:50:33.662Z,25.20
2022-08-07T13:55:37.144Z,25.10
2022-08-07T14:01:15.914Z,24.90
2022-08-07T14:06:50.306Z,25.00
2022-08-07T14:13:01.949Z,24.80
2022-08-07T14:18:49.908Z,24.90
2022-08-07T14:24:33.495Z,24.80
2022-08-07T14:30:11.820Z,24.80
2022-08-07T14:35:45.646Z,24.70
2022-08-07T14:41:33.836Z,24.70
2022-08-07T14:47:19.202Z,24.70
2022-08-07T14:52:50.226Z,24.80
2022-08-07T14:58:24.883Z,24.90
2022-08-07T15:03:53.636Z,24.50
2022-08-07T15:09:58.438Z,24.00
2022-08-07T15:15:22.422Z,23.90
2022-08-07T15:20:54.730Z,23.60
2022-08-07T15:26:36.017Z,23.40
2022-08-07T15:32:11.779Z,23.30
2022-08-07T15:50:03.750Z,23.20
2022-08-07T15:55:21.026Z,22.90
2022-08-07T16:00:51.692Z,22.90
2022-08-07T16:06:50.318Z,22.90
2022-08-07T16:13:00.888Z,22.70
2022-08-07T16:19:42.049Z,22.70
2022-08-07T16:25:55.249Z,22.50
2022-08-07T16:31:50.456Z,22.30
2022-08-07T16:38:06.628Z,22.20
2022-08-07T16:44:47.184Z,22.00
2022-08-07T16:50:38.995Z,22.00
2022-08-07T16:56:49.860Z,21.90
2022-08-07T17:03:06.082Z,21.80
2022-08-07T17:09:08.798Z,21.80
2022-08-07T17:15:02.478Z,21.70
2022-08-07T17:20:37.790Z,21.60
2022-08-07T17:26:23.528Z,21.50
2022-08-07T17:32:30.463Z,21.50
2022-08-07T17:38:13.600Z,21.40
2022-08-07T17:44:03.256Z,21.30
2022-08-07T17:49:56.810Z,21.20
2022-08-07T17:56:00.819Z,21.10
2022-08-07T18:02:11.186Z,21.10
2022-08-07T18:07:51.599Z,21.00
2022-08-07T18:13:53.601Z,20.90
2022-08-07T18:21:07.326Z,21.00
2022-08-07T18:25:40.835Z,20.90
2022-08-07T18:31:50.254Z,20.80
2022-08-07T18:38:56.218Z,20.60
2022-08-07T18:43:57.726Z,20.60
2022-08-07T18:50:30.759Z,20.60
2022-08-07T18:56:02.574Z,20.50
2022-08-07T19:02:32.034Z,20.40
2022-08-07T19:08:04.037Z,20.40
2022-08-07T19:13:45.707Z,20.40
2022-08-07T19:19:45.392Z,20.30
2022-08-07T19:26:22.737Z,20.30
2022-08-07T19:31:39.545Z,20.30
2022-08-07T19:37:17.414Z,19.70
2022-08-07T19:42:47.247Z,20.10
2022-08-07T19:48:18.998Z,20.10
2022-08-07T19:54:34.049Z,20.00
2022-08-07T19:59:50.056Z,19.90
2022-08-07T20:05:31.139Z,19.90
2022-08-07T20:11:34.251Z,19.80
2022-08-07T20:17:13.908Z,19.70
2022-08-07T20:22:47.135Z,19.60
2022-08-07T20:28:17.502Z,19.50
2022-08-07T20:33:56.793Z,19.50
2022-08-07T20:40:02.693Z,19.40
2022-08-07T20:45:32.123Z,19.30
2022-08-07T20:51:09.409Z,19.20
2022-08-07T20:56:46.202Z,19.10
2022-08-07T21:02:39.152Z,19.10
2022-08-07T21:14:16.821Z,18.80
2022-08-07T21:19:51.085Z,18.60
2022-08-07T21:26:12.170Z,18.60
2022-08-07T21:32:42.826Z,18.60
2022-08-07T21:38:27.500Z,18.40
2022-08-07T21:44:14.194Z,18.30
2022-08-07T21:50:01.822Z,19.00
2022-08-07T21:56:02.756Z,18.10
2022-08-07T22:02:10.704Z,18.00
2022-08-07T22:07:58.559Z,17.90
2022-08-07T22:13:52.395Z,17.90
2022-08-07T22:19:36.985Z,17.70
2022-08-07T22:25:36.532Z,17.60
2022-08-07T22:31:56.033Z,17.50
2022-08-07T22:38:03.311Z,17.50
2022-08-07T22:43:43.664Z,17.40
2022-08-07T22:49:33.820Z,17.30
2022-08-07T22:55:58.334Z,17.30
2022-08-07T23:01:50.614Z,17.20
2022-08-07T23:07:41.714Z,17.20
2022-08-07T23:13:48.887Z,17.20
2022-08-07T23:20:52.283Z,17.20
2022-08-07T23:26:25.098Z,17.20
2022-08-07T23:34:19.765Z,17.20
2022-08-07T23:38:54.686Z,17.10
2022-08-07T23:45:43.514Z,17.00
2022-08-07T23:53:00.668Z,16.50
2022-08-07T23:57:31.042Z,17.00
